createdAt,value
2022-08-17T00:01:31.434Z,16.65
2022-08-17T00:04:19.335Z,20.20
2022-08-17T00:06:46.254Z,19.55
2022-08-17T00:09:18.431Z,17.67
2022-08-17T00:12:35.485Z,17.80
2022-08-17T00:14:34.976Z,17.90
2022-08-17T00:17:02.711Z,16.25
2022-08-17T00:19:29.751Z,14.55
2022-08-17T00:22:35.079Z,14.90
2022-08-17T00:24:47.046Z,14.73
2022-08-17T00:27:13.700Z,13.13
2022-08-17T00:29:40.551Z,12.93
2022-08-17T00:33:13.795Z,13.00
2022-08-17T00:34:53.864Z,13.43
2022-08-17T00:37:20.464Z,14.35
2022-08-17T00:39:47.136Z,11.55
2022-08-17T00:42:18.290Z,12.45
2022-08-17T00:44:45.524Z,12.20
2022-08-17T00:47:13.524Z,11.48
2022-08-17T00:49:40.221Z,11.02
2022-08-17T00:52:15.601Z,11.50
2022-08-17T00:54:44.611Z,11.43
2022-08-17T00:57:14.721Z,10.93
2022-08-17T00:59:55.967Z,10.23
2022-08-17T01:02:36.676Z,10.00
2022-08-17T01:05:13.166Z,9.43
2022-08-17T01:07:40.307Z,9.15
2022-08-17T01:10:57.627Z,9.45
2022-08-17T01:12:57.927Z,10.85
2022-08-17T01:15:24.522Z,10.77
2022-08-17T01:17:51.213Z,10.10
2022-08-17T01:20:18.026Z,9.70
2022-08-17T01:22:44.623Z,9.13
2022-08-17T01:25:12.620Z,10.07
2022-08-17T01:27:39.720Z,11.10
2022-08-17T01:30:56.548Z,10.20
2022-08-17T01:32:56.578Z,9.05
2022-08-17T01:35:23.170Z,9.52
2022-08-17T01:37:49.817Z,9.13
2022-08-17T01:40:29.439Z,10.88
2022-08-17T01:42:59.826Z,9.82
2022-08-17T01:45:30.440Z,9.23
2022-08-17T01:47:57.052Z,9.80
2022-08-17T01:50:31.385Z,9.00
2022-08-17T01:53:11.071Z,9.23
2022-08-17T01:55:50.672Z,10.80
2022-08-17T01:58:17.755Z,8.98
2022-08-17T02:01:00.250Z,10.02
2022-08-17T02:03:32.197Z,8.73
2022-08-17T02:05:58.823Z,9.07
2022-08-17T02:08:39.300Z,9.88
2022-08-17T02:11:15.808Z,9.23
2022-08-17T02:13:46.797Z,9.32
2022-08-17T02:16:14.250Z,8.30
2022-08-17T02:18:41.283Z,8.80
2022-08-17T02:21:08.612Z,8.88
2022-08-17T02:23:37.848Z,9.43
2022-08-17T02:26:05.373Z,9.57
2022-08-17T02:28:32.002Z,8.05
2022-08-17T02:31:04.596Z,8.70
2022-08-17T02:33:41.901Z,8.68
2022-08-17T02:36:11.517Z,9.57
2022-08-17T02:38:39.460Z,10.18
2022-08-17T02:41:06.502Z,8.82
2022-08-17T02:43:33.225Z,9.50
2022-08-17T02:45:59.774Z,11.13
2022-08-17T02:48:30.939Z,9.82
2022-08-17T02:50:59.370Z,9.88
2022-08-17T02:53:26.106Z,9.65
2022-08-17T02:55:52.843Z,9.85
2022-08-17T02:58:35.485Z,9.40
2022-08-17T03:01:07.013Z,10.65
2022-08-17T03:03:33.893Z,9.80
2022-08-17T03:06:00.827Z,10.52
2022-08-17T03:08:27.475Z,9.57
2022-08-17T03:10:54.104Z,10.23
2022-08-17T03:13:20.845Z,9.90
2022-08-17T03:15:48.588Z,9.35
2022-08-17T03:18:24.320Z,10.88
2022-08-17T03:20:57.202Z,9.20
2022-08-17T03:23:25.353Z,10.18
2022-08-17T03:25:53.630Z,10.30
2022-08-17T03:28:21.417Z,8.90
2022-08-17T03:30:48.025Z,8.90
2022-08-17T03:33:14.739Z,9.40
2022-08-17T03:35:41.817Z,8.82
2022-08-17T03:38:12.206Z,10.23
2022-08-17T03:40:56.729Z,9.15
2022-08-17T03:43:27.822Z,10.57
2022-08-17T03:46:28.201Z,9.43
2022-08-17T03:52:04.000Z,10.88
2022-08-17T03:54:49.283Z,9.10
2022-08-17T03:57:16.458Z,9.43
2022-08-17T03:59:43.153Z,10.38
2022-08-17T04:02:17.478Z,9.85
2022-08-17T04:04:44.388Z,12.27
2022-08-17T04:07:11.099Z,10.05
2022-08-17T04:09:38.106Z,9.05
2022-08-17T04:12:05.388Z,8.85
2022-08-17T04:14:45.988Z,9.27
2022-08-17T04:17:26.303Z,9.23
2022-08-17T04:19:54.007Z,8.20
2022-08-17T04:22:32.622Z,8.40
2022-08-17T04:25:15.729Z,9.73
2022-08-17T04:27:42.327Z,8.60
2022-08-17T04:30:09.736Z,9.35
2022-08-17T04:33:02.282Z,9.15
2022-08-17T04:35:39.452Z,7.53
2022-08-17T04:38:07.597Z,8.70
2022-08-17T04:40:52.895Z,10.07
2022-08-17T04:43:21.762Z,9.63
2022-08-17T04:46:06.355Z,9.88
2022-08-17T04:48:38.823Z,10.88
2022-08-17T04:51:10.504Z,12.52
2022-08-17T04:53:38.726Z,10.77
2022-08-17T04:56:05.880Z,12.68
2022-08-17T04:58:32.575Z,11.60
2022-08-17T05:00:59.283Z,12.93
2022-08-17T05:03:25.962Z,12.98
2022-08-17T05:05:53.718Z,10.55
2022-08-17T05:08:21.387Z,10.75
2022-08-17T05:10:48.952Z,10.43
2022-08-17T05:13:21.512Z,12.52
2022-08-17T05:15:49.909Z,11.52
2022-08-17T05:18:17.092Z,10.32
2022-08-17T05:20:44.542Z,10.77
2022-08-17T05:23:14.759Z,10.80
2022-08-17T05:25:46.257Z,8.80
2022-08-17T05:28:15.284Z,10.38
2022-08-17T05:30:43.903Z,10.18
2022-08-17T05:33:13.362Z,10.45
2022-08-17T05:35:46.996Z,10.45
2022-08-17T05:38:14.911Z,11.20
2022-08-17T05:40:43.310Z,10.90
2022-08-17T05:43:11.531Z,11.05
2022-08-17T05:45:55.229Z,9.18
2022-08-17T05:48:36.738Z,24.50
2022-08-17T05:51:34.685Z,9.77
2022-08-17T05:54:13.705Z,8.98
2022-08-17T05:57:02.278Z,13.23
2022-08-17T06:00:10.973Z,9.75
2022-08-17T06:02:59.330Z,9.57
2022-08-17T06:06:01.453Z,9.05
2022-08-17T06:08:56.188Z,8.90
2022-08-17T06:11:22.856Z,9.53
2022-08-17T06:14:08.261Z,8.80
2022-08-17T06:16:39.782Z,8.38
2022-08-17T06:19:17.623Z,9.02
2022-08-17T06:21:47.883Z,8.88
2022-08-17T06:24:34.288Z,13.25
2022-08-17T06:27:09.713Z,12.07
2022-08-17T06:29:45.107Z,11.25
2022-08-17T06:32:12.983Z,14.23
2022-08-17T06:34:40.544Z,13.32
2022-08-17T06:37:10.236Z,9.90
2022-08-17T06:40:04.137Z,8.60
2022-08-17T06:43:04.982Z,10.07
2022-08-17T06:45:49.500Z,8.88
2022-08-17T06:48:25.906Z,9.30
2022-08-17T06:50:57.846Z,8.30
2022-08-17T06:53:32.759Z,7.50
2022-08-17T06:56:06.381Z,7.43
2022-08-17T06:58:33.752Z,8.35
2022-08-17T07:01:11.764Z,8.32
2022-08-17T07:03:54.559Z,9.32
2022-08-17T07:06:24.265Z,8.40
2022-08-17T07:08:55.987Z,8.00
2022-08-17T07:11:54.794Z,7.90
2022-08-17T07:14:41.055Z,7.82
2022-08-17T07:17:13.355Z,7.72
2022-08-17T07:19:45.390Z,7.75
2022-08-17T07:22:57.693Z,8.52
2022-08-17T07:25:26.369Z,7.97
2022-08-17T07:27:55.912Z,7.55
2022-08-17T07:30:45.747Z,6.70
2022-08-17T07:33:20.272Z,7.78
2022-08-17T07:35:48.406Z,6.65
2022-08-17T07:38:29.938Z,7.57
2022-08-17T07:41:03.499Z,7.10
2022-08-17T07:43:37.219Z,8.52
2022-08-17T07:46:38.534Z,8.30
2022-08-17T07:49:06.721Z,7.53
2022-08-17T07:51:41.088Z,6.95
2022-08-17T07:54:22.443Z,6.75
2022-08-17T07:57:01.003Z,7.30
2022-08-17T07:59:28.615Z,6.90
2022-08-17T08:02:06.806Z,6.95
2022-08-17T08:04:59.668Z,7.25
2022-08-17T08:07:32.034Z,7.05
2022-08-17T08:10:07.455Z,7.50
2022-08-17T08:12:36.922Z,6.95
2022-08-17T08:15:03.455Z,7.63
2022-08-17T08:17:36.523Z,7.97
2022-08-17T08:20:37.581Z,7.45
2022-08-17T08:23:19.282Z,8.88
2022-08-17T08:26:26.490Z,7.57
2022-08-17T08:29:14.775Z,8.23
2022-08-17T08:31:56.266Z,9.00
2022-08-17T08:35:02.121Z,8.43
2022-08-17T08:37:35.751Z,8.45
2022-08-17T08:40:11.076Z,8.25
2022-08-17T08:42:40.552Z,8.73
2022-08-17T08:45:43.439Z,8.10
2022-08-17T08:48:53.433Z,9.63
2022-08-17T08:51:46.231Z,9.80
2022-08-17T08:54:35.219Z,9.30
2022-08-17T08:57:26.710Z,8.32
2022-08-17T08:59:59.794Z,8.38
2022-08-17T09:02:51.571Z,10.27
2022-08-17T09:05:30.544Z,10.20
2022-08-17T09:08:28.274Z,8.60
2022-08-17T09:11:08.376Z,9.52
2022-08-17T09:13:59.050Z,10.25
2022-08-17T09:16:29.943Z,8.77
2022-08-17T09:19:42.714Z,9.90
2022-08-17T09:22:24.241Z,10.10
2022-08-17T09:25:03.183Z,11.45
2022-08-17T09:27:51.032Z,9.30
2022-08-17T09:30:18.594Z,11.23
2022-08-17T09:32:50.024Z,8.20
2022-08-17T09:35:37.080Z,9.23
2022-08-17T09:38:16.226Z,9.02
2022-08-17T09:40:53.529Z,9.77
2022-08-17T09:43:36.838Z,8.00
2022-08-17T09:46:09.601Z,10.73
2022-08-17T09:48:40.679Z,10.07
2022-08-17T09:51:25.230Z,10.27
2022-08-17T09:53:52.085Z,9.48
2022-08-17T09:57:00.865Z,10.10
2022-08-17T09:59:44.832Z,9.73
2022-08-17T10:02:33.355Z,9.60
2022-08-17T10:05:04.813Z,11.02
2022-08-17T10:07:56.093Z,11.30
2022-08-17T10:10:29.541Z,9.90
2022-08-17T10:13:10.602Z,11.10
2022-08-17T10:15:56.082Z,10.80
2022-08-17T10:18:41.471Z,11.55
2022-08-17T10:21:29.915Z,10.98
2022-08-17T10:24:20.249Z,11.02
2022-08-17T10:26:57.121Z,10.45
2022-08-17T10:29:54.497Z,11.88
2022-08-17T10:32:28.307Z,10.30
2022-08-17T10:35:16.706Z,10.80
2022-08-17T10:38:15.387Z,12.05
2022-08-17T10:40:49.600Z,11.30
2022-08-17T10:43:32.985Z,10.48
2022-08-17T10:46:30.417Z,11.07
2022-08-17T10:49:17.059Z,10.43
2022-08-17T10:51:48.252Z,10.90
2022-08-17T10:54:45.692Z,10.93
2022-08-17T10:57:31.792Z,11.02
2022-08-17T11:00:00.764Z,11.02
2022-08-17T11:02:39.423Z,11.48
2022-08-17T11:05:28.743Z,11.57
2022-08-17T11:08:26.267Z,10.35
2022-08-17T11:11:17.870Z,11.38
2022-08-17T11:14:18.003Z,9.77
2022-08-17T11:16:47.945Z,10.70
2022-08-17T11:19:24.024Z,10.93
2022-08-17T11:22:02.651Z,10.98
2022-08-17T11:24:33.001Z,11.13
2022-08-17T11:27:29.115Z,11.10
2022-08-17T11:30:02.719Z,10.63
2022-08-17T11:32:47.236Z,10.65
2022-08-17T11:38:08.697Z,10.93
2022-08-17T11:40:46.637Z,11.55
2022-08-17T11:43:42.291Z,10.98
2022-08-17T11:47:08.474Z,12.63
2022-08-17T11:50:27.118Z,11.48
2022-08-17T11:52:54.978Z,12.25
2022-08-17T11:55:38.559Z,10.93
2022-08-17T11:58:34.197Z,10.43
2022-08-17T12:01:02.114Z,9.55
2022-08-17T12:03:31.937Z,10.25
2022-08-17T12:06:20.360Z,10.00
2022-08-17T12:09:21.744Z,10.25
2022-08-17T12:12:12.410Z,11.70
2022-08-17T12:17:41.184Z,10.27
2022-08-17T12:20:16.285Z,10.85
2022-08-17T12:22:54.879Z,10.43
2022-08-17T12:25:26.965Z,10.23
2022-08-17T12:28:06.339Z,10.10
2022-08-17T12:30:34.701Z,10.30
2022-08-17T12:33:01.386Z,9.95
2022-08-17T12:35:35.988Z,9.98
2022-08-17T12:40:32.110Z,10.05
2022-08-17T12:43:03.240Z,9.57
2022-08-17T12:45:32.480Z,10.60
2022-08-17T12:48:08.058Z,9.60
2022-08-17T12:50:39.948Z,9.65
2022-08-17T12:53:36.003Z,10.77
2022-08-17T12:56:07.630Z,9.40
2022-08-17T12:58:47.786Z,8.32
2022-08-17T13:01:16.575Z,9.70
2022-08-17T13:03:50.381Z,9.88
2022-08-17T13:06:28.648Z,9.00
2022-08-17T13:08:55.277Z,9.63
2022-08-17T13:11:24.850Z,9.55
2022-08-17T13:13:55.105Z,8.75
2022-08-17T13:16:26.940Z,10.15
2022-08-17T13:19:14.967Z,8.85
2022-08-17T13:21:54.242Z,9.32
2022-08-17T13:24:20.808Z,8.93
2022-08-17T13:27:07.890Z,9.10
2022-08-17T13:29:35.074Z,9.52
2022-08-17T13:32:05.064Z,9.23
2022-08-17T13:35:03.741Z,9.57
2022-08-17T13:37:34.446Z,8.10
2022-08-17T13:40:10.189Z,9.30
2022-08-17T13:42:52.572Z,9.73
2022-08-17T13:45:36.753Z,8.80
2022-08-17T13:48:14.112Z,9.05
2022-08-17T13:50:49.409Z,9.30
2022-08-17T13:53:26.750Z,9.25
2022-08-17T13:55:55.357Z,8.80
2022-08-17T13:58:56.696Z,8.38
2022-08-17T14:01:32.979Z,7.75
2022-08-17T14:04:01.509Z,8.73
2022-08-17T14:06:53.021Z,8.23
2022-08-17T14:09:23.250Z,7.80
2022-08-17T14:11:51.160Z,7.93
2022-08-17T14:14:19.787Z,8.20
2022-08-17T14:16:46.360Z,8.20
2022-08-17T14:19:14.107Z,9.05
2022-08-17T14:21:43.249Z,9.65
2022-08-17T14:24:21.889Z,7.82
2022-08-17T14:26:49.627Z,8.73
2022-08-17T14:29:16.264Z,7.57
2022-08-17T14:31:42.904Z,8.75
2022-08-17T14:34:20.191Z,8.32
2022-08-17T14:36:48.524Z,8.18
2022-08-17T14:39:15.916Z,7.88
2022-08-17T14:41:42.856Z,8.82
2022-08-17T14:44:13.047Z,7.97
2022-08-17T14:46:41.255Z,8.18
2022-08-17T14:49:10.739Z,7.90
2022-08-17T14:51:43.606Z,7.35
2022-08-17T14:54:34.169Z,7.40
2022-08-17T14:57:23.253Z,7.95
2022-08-17T14:59:54.429Z,7.82
2022-08-17T15:02:30.436Z,7.50
2022-08-17T15:05:05.546Z,7.75
2022-08-17T15:10:01.568Z,7.25
2022-08-17T15:12:32.639Z,7.60
2022-08-17T15:15:01.100Z,7.55
2022-08-17T15:17:43.831Z,7.07
2022-08-17T15:20:24.809Z,8.18
2022-08-17T15:22:55.405Z,6.75
2022-08-17T15:25:22.765Z,8.32
2022-08-17T15:27:49.589Z,7.95
2022-08-17T15:30:16.486Z,7.65
2022-08-17T15:32:50.839Z,7.38
2022-08-17T15:35:26.970Z,7.80
2022-08-17T15:38:04.587Z,7.53
2022-08-17T15:40:37.224Z,7.78
2022-08-17T15:43:07.633Z,7.28
2022-08-17T15:45:34.700Z,8.05
2022-08-17T15:48:01.279Z,8.35
2022-08-17T15:50:27.932Z,8.10
2022-08-17T15:52:57.966Z,7.82
2022-08-17T15:55:26.873Z,8.48
2022-08-17T15:57:53.863Z,7.20
2022-08-17T16:00:21.200Z,7.32
2022-08-17T16:03:45.127Z,7.55
2022-08-17T16:05:35.215Z,8.32
2022-08-17T16:08:01.857Z,8.10
2022-08-17T16:10:34.994Z,9.90
2022-08-17T16:13:03.400Z,6.57
2022-08-17T16:15:32.119Z,7.97
2022-08-17T16:17:58.851Z,6.80
2022-08-17T16:20:25.666Z,7.90
2022-08-17T16:22:52.587Z,8.50
2022-08-17T16:25:50.376Z,6.97
2022-08-17T16:28:12.665Z,8.95
2022-08-17T16:30:39.360Z,8.30
2022-08-17T16:33:06.019Z,7.57
2022-08-17T16:35:33.352Z,7.82
2022-08-17T16:37:59.969Z,8.13
2022-08-17T16:40:28.787Z,7.47
2022-08-17T16:42:57.799Z,7.15
2022-08-17T16:45:31.413Z,7.93
2022-08-17T16:47:59.080Z,7.40
2022-08-17T16:50:25.977Z,8.40
2022-08-17T16:52:52.795Z,8.00
2022-08-17T16:55:22.997Z,8.35
2022-08-17T16:57:50.730Z,7.93
2022-08-17T17:00:19.225Z,8.15
2022-08-17T17:02:47.953Z,8.23
2022-08-17T17:05:42.708Z,7.97
2022-08-17T17:08:12.899Z,7.97
2022-08-17T17:10:46.066Z,9.35
2022-08-17T17:13:32.468Z,8.15
2022-08-17T17:16:11.889Z,8.40
2022-08-17T17:18:58.415Z,7.75
2022-08-17T17:21:33.293Z,7.90
2022-08-17T17:24:06.133Z,7.70
2022-08-17T17:27:07.359Z,8.57
2022-08-17T17:29:58.135Z,8.48
2022-08-17T17:32:46.188Z,8.18
2022-08-17T17:35:20.529Z,8.10
2022-08-17T17:37:47.763Z,7.95
2022-08-17T17:40:23.151Z,7.63
2022-08-17T17:42:52.951Z,8.13
2022-08-17T17:45:31.894Z,7.45
2022-08-17T17:47:58.525Z,9.55
2022-08-17T17:50:37.670Z,8.77
2022-08-17T17:53:18.299Z,8.13
2022-08-17T17:56:07.432Z,7.90
2022-08-17T17:58:54.116Z,8.45
2022-08-17T18:01:43.046Z,8.00
2022-08-17T18:04:32.568Z,8.10
2022-08-17T18:07:10.077Z,8.73
2022-08-17T18:10:00.976Z,8.90
2022-08-17T18:12:37.208Z,7.60
2022-08-17T18:15:14.009Z,10.15
2022-08-17T18:18:03.846Z,9.93
2022-08-17T18:20:36.449Z,9.50
2022-08-17T18:23:17.990Z,8.57
2022-08-17T18:25:46.894Z,8.95
2022-08-17T18:28:25.246Z,8.55
2022-08-17T18:31:03.932Z,8.00
2022-08-17T18:33:30.586Z,8.65
2022-08-17T18:35:58.685Z,8.77
2022-08-17T18:38:41.964Z,8.18
2022-08-17T18:41:21.102Z,8.98
2022-08-17T18:44:03.745Z,8.52
2022-08-17T18:46:35.948Z,9.35
2022-08-17T18:49:08.529Z,9.80
2022-08-17T18:51:41.596Z,8.68
2022-08-17T18:54:24.966Z,11.35
2022-08-17T18:56:58.827Z,12.45
2022-08-17T18:59:49.330Z,9.20
2022-08-17T19:02:32.496Z,9.90
2022-08-17T19:05:26.739Z,8.68
2022-08-17T19:07:53.641Z,12.15
2022-08-17T19:10:46.329Z,11.30
2022-08-17T19:13:24.469Z,8.75
2022-08-17T19:16:11.575Z,9.68
2022-08-17T19:19:10.277Z,8.93
2022-08-17T19:21:40.441Z,11.75
2022-08-17T19:24:13.535Z,10.60
2022-08-17T19:26:51.007Z,9.02
2022-08-17T19:29:25.628Z,9.23
2022-08-17T19:31:55.227Z,9.70
2022-08-17T19:34:33.242Z,9.60
2022-08-17T19:37:06.898Z,9.25
2022-08-17T19:40:24.513Z,11.02
2022-08-17T19:43:15.020Z,9.30
2022-08-17T19:45:47.503Z,10.05
2022-08-17T19:48:45.579Z,10.07
2022-08-17T19:51:34.419Z,10.27
2022-08-17T19:54:14.207Z,10.35
2022-08-17T19:57:19.168Z,10.07
2022-08-17T20:00:17.670Z,12.50
2022-08-17T20:02:57.351Z,10.27
2022-08-17T20:06:01.031Z,9.18
2022-08-17T20:08:26.881Z,9.82
2022-08-17T20:11:02.025Z,14.32
2022-08-17T20:13:40.178Z,10.35
2022-08-17T20:16:07.976Z,10.20
2022-08-17T20:18:38.564Z,9.95
2022-08-17T20:22:03.487Z,11.25
2022-08-17T20:24:30.068Z,10.50
2022-08-17T20:27:11.403Z,10.40
2022-08-17T20:30:01.744Z,10.77
2022-08-17T20:32:31.451Z,11.85
2022-08-17T20:35:08.186Z,10.40
2022-08-17T20:37:36.548Z,10.77
2022-08-17T20:40:09.331Z,11.02
2022-08-17T20:42:36.668Z,10.50
2022-08-17T20:45:26.426Z,10.65
2022-08-17T20:48:30.463Z,10.80
2022-08-17T20:50:52.515Z,11.15
2022-08-17T20:53:47.297Z,10.13
2022-08-17T20:56:41.788Z,9.73
2022-08-17T20:59:08.685Z,11.48
2022-08-17T21:01:40.395Z,12.90
2022-08-17T21:04:10.520Z,12.32
2022-08-17T21:07:17.281Z,10.85
2022-08-17T21:09:44.580Z,11.07
2022-08-17T21:12:11.891Z,12.77
2022-08-17T21:15:05.680Z,11.85
2022-08-17T21:17:56.549Z,11.75
2022-08-17T21:20:32.578Z,13.30
2022-08-17T21:23:08.588Z,10.90
2022-08-17T21:26:20.396Z,11.13
2022-08-17T21:29:30.349Z,11.98
2022-08-17T21:32:01.671Z,11.40
2022-08-17T21:34:35.844Z,11.95
2022-08-17T21:37:23.418Z,11.40
2022-08-17T21:40:19.303Z,12.02
2022-08-17T21:42:50.588Z,10.38
2022-08-17T21:45:29.779Z,11.13
2022-08-17T21:48:14.571Z,11.10
2022-08-17T21:50:44.223Z,10.80
2022-08-17T21:53:24.033Z,10.93
2022-08-17T21:55:52.241Z,10.25
2022-08-17T21:58:40.290Z,10.48
2022-08-17T22:01:21.158Z,11.10
2022-08-17T22:03:58.853Z,10.25
2022-08-17T22:06:29.960Z,9.60
2022-08-17T22:09:11.745Z,10.70
2022-08-17T22:11:51.277Z,10.95
2022-08-17T22:14:21.395Z,10.30
2022-08-17T22:16:48.514Z,10.23
2022-08-17T22:19:15.440Z,10.55
2022-08-17T22:21:42.036Z,10.32
2022-08-17T22:24:21.715Z,10.00
2022-08-17T22:27:00.457Z,9.60
2022-08-17T22:29:43.940Z,9.52
2022-08-17T22:32:10.817Z,10.27
2022-08-17T22:34:39.076Z,11.90
2022-08-17T22:37:27.465Z,10.35
2022-08-17T22:39:59.331Z,10.80
2022-08-17T22:42:25.999Z,11.13
2022-08-17T22:44:54.635Z,11.43
2022-08-17T22:47:32.039Z,10.10
2022-08-17T22:50:02.029Z,10.82
2022-08-17T22:53:14.382Z,11.48
2022-08-17T22:56:10.699Z,10.45
2022-08-17T22:59:20.990Z,12.55
2022-08-17T23:02:12.597Z,10.45
2022-08-17T23:04:42.859Z,10.57
2022-08-17T23:07:09.519Z,10.60
2022-08-17T23:09:36.367Z,11.00
2022-08-17T23:12:07.903Z,10.25
2022-08-17T23:14:39.294Z,10.43
2022-08-17T23:17:06.552Z,10.65
2022-08-17T23:19:33.604Z,10.85
2022-08-17T23:22:02.336Z,10.93
2022-08-17T23:24:30.798Z,11.25
2022-08-17T23:26:58.169Z,10.82
2022-08-17T23:29:29.257Z,11.05
2022-08-17T23:31:57.927Z,11.98
2022-08-17T23:34:25.603Z,11.68
2022-08-17T23:36:53.200Z,10.27
2022-08-17T23:39:27.725Z,12.00
2022-08-17T23:41:56.531Z,10.55
2022-08-17T23:44:23.505Z,9.98
2022-08-17T23:46:53.760Z,10.35
2022-08-17T23:49:20.634Z,11.20
2022-08-17T23:51:48.305Z,11.25
2022-08-17T23:54:26.625Z,11.45
2022-08-17T23:56:53.184Z,11.10
2022-08-17T23:59:22.490Z,11.93
